AT-0002 weather

Scalaria Airchallenge Water Landing Area
Lake Wolfgang, Upper Austria, Austria

Public forecast

Using degrees Celsius for public forecast. Weather courtesy of forecast.io.

METAR (pilot weather report)

Closest report is Salzburg Airport, 18.1 nm (33.5 km) WNW. Retrieved 2019/01/17 08:20 UTC (18 minutes ago):

LOWS 170820Z 16010KT CAVOK 00/M04 Q1009 NOSIG

TAF (pilot weather forecast)

Closest forecast is Salzburg Airport, 18.1 nm (33.5 km) WNW. Retrieved 2019/01/17 06:18 UTC (2 hours ago):

TAF LOWS 170515Z 1706/1806 15007KT CAVOK TX06/1713Z TNM00/1706Z BECMG 1712/1714 27006KT 9999 SCT040 BKN080 TEMPO 1718/1806 29012G25KT TEMPO 1718/1722 -RASN BKN030 PROB30 TEMPO 1718/1724 3000 SNRA BKN020 TEMPO 1722/1806 3000 -SHSN SCT020 BKN030 PROB30 TEMPO 1800/1806 29012G22KT 1400 SHSN FEW010TCU BKN012